Time;durP1;ratioP1;P1;durP2;ratioP2;P2;SDS_P1;SDS_P2;PMS_P1;PMS_P2;Temp;Humidity;BMP_temperature;BMP_pressure;BME280_temperature;BME280_humidity;BME280_pressure;Samples;Min_cycle;Max_cycle;Signal;HPM_P1;HPM_P2
2022/12/18 00:00:25;;;;;;;;;;;;;;;-1.81;100.00;100249.50;5023342;28;19920;-43
2022/12/18 00:02:51;;;;;;;;;;;;;;;-2.00;100.00;100242.03;5021960;28;19921;-43
2022/12/18 00:05:16;;;;;;;;;;;;;;;-2.08;100.00;100243.41;5023594;28;19921;-43
2022/12/18 00:07:41;;;;;;;;;;;;;;;-1.77;100.00;100246.28;5022289;28;20282;-42
2022/12/18 00:10:07;;;;;;;;;;;;;;;-1.76;100.00;100242.94;5022835;28;20482;-43
2022/12/18 00:12:32;;;;;;;;;;;;;;;-1.95;100.00;100240.56;5023951;28;20048;-43
2022/12/18 00:14:57;;;;;;;;;;;;;;;-1.81;100.00;100243.59;5023677;28;19920;-43
2022/12/18 00:17:22;;;;;;;;;;;;;;;-2.07;100.00;100240.94;5023348;28;19921;-44
2022/12/18 00:19:47;;;;;;;;;;;;;;;-1.85;100.00;100245.13;5023074;28;20603;-43
2022/12/18 00:22:13;;;;;;;;;;;;;;;-1.77;100.00;100247.97;5023634;28;20608;-43
2022/12/18 00:24:38;;;;;;;;;;;;;;;-2.07;100.00;100235.91;5023654;28;20243;-43
2022/12/18 00:27:03;;;;;;;;;;;;;;;-1.98;100.00;100245.50;5023211;28;20376;-43
2022/12/18 00:29:28;;;;;;;;;;;;;;;-1.97;100.00;100242.16;5022628;28;19917;-43
2022/12/18 00:31:53;;;;;;;;;;;;;;;-1.94;100.00;100248.19;5023312;28;19921;-43
2022/12/18 00:34:19;;;;;;;;;;;;;;;-2.13;100.00;100246.59;5023620;28;19964;-43
2022/12/18 00:36:47;;;;;;;;;;;;;;;-2.07;100.00;100245.13;5023189;28;20362;-43
2022/12/18 00:39:12;;;;;;;;;;;;;;;-1.67;100.00;100246.63;5021316;28;19922;-43
2022/12/18 00:44:21;;;;;;;;;;;;;;;-1.78;100.00;100254.69;5022680;28;19932;-43
2022/12/18 00:46:47;;;;;;;;;;;;;;;-1.72;100.00;100267.53;5023520;28;19921;-43
2022/12/18 00:49:12;;;;;;;;;;;;;;;-1.74;100.00;100256.50;5022107;28;19979;-43
2022/12/18 00:51:37;;;;;;;;;;;;;;;-1.88;100.00;100252.59;5022877;28;19932;-43
2022/12/18 00:54:03;;;;;;;;;;;;;;;-2.01;100.00;100256.31;5023000;28;19999;-43
2022/12/18 00:56:28;;;;;;;;;;;;;;;-1.83;100.00;100266.25;5022971;28;19931;-43
2022/12/18 00:58:53;;;;;;;;;;;;;;;-2.15;100.00;100257.44;5021846;28;20639;-43
2022/12/18 01:01:19;;;;;;;;;;;;;;;-2.09;100.00;100254.31;5021466;28;20454;-43
2022/12/18 01:03:47;;;;;;;;;;;;;;;-1.93;100.00;100252.44;5022950;28;19967;-43
2022/12/18 01:06:13;;;;;;;;;;;;;;;-2.23;100.00;100239.50;5022760;28;19924;-43
2022/12/18 01:08:38;;;;;;;;;;;;;;;-1.84;100.00;100258.66;5020022;28;20961;-43
2022/12/18 01:11:11;;;;;;;;;;;;;;;-2.07;100.00;100252.72;5021706;28;19917;-43
2022/12/18 01:13:37;;;;;;;;;;;;;;;-1.74;100.00;100256.50;5020480;28;20369;-43
2022/12/18 01:16:02;;;;;;;;;;;;;;;-1.91;100.00;100262.59;5021081;28;19976;-43
2022/12/18 01:18:27;;;;;;;;;;;;;;;-1.72;100.00;100265.00;5020428;28;20380;-43
2022/12/18 01:20:53;;;;;;;;;;;;;;;-1.78;100.00;100269.84;5021040;28;20321;-43
2022/12/18 01:23:18;;;;;;;;;;;;;;;-1.67;100.00;100262.66;5020923;28;19921;-43
2022/12/18 01:25:43;;;;;;;;;;;;;;;-1.79;100.00;100260.53;5021466;28;19924;-43
2022/12/18 01:28:08;;;;;;;;;;;;;;;-2.04;100.00;100258.72;5021502;28;19921;-43
2022/12/18 01:30:34;;;;;;;;;;;;;;;-1.97;100.00;100260.69;5022302;28;19925;-43
2022/12/18 01:32:59;;;;;;;;;;;;;;;-1.88;100.00;100255.13;5022420;28;20431;-43
2022/12/18 01:35:24;;;;;;;;;;;;;;;-1.67;100.00;100261.78;5021914;28;19925;-43
2022/12/18 01:37:49;;;;;;;;;;;;;;;-1.74;100.00;100256.50;5021183;28;19917;-43
2022/12/18 01:40:14;;;;;;;;;;;;;;;-1.80;100.00;100258.81;5019302;28;19917;-43
2022/12/18 01:42:40;;;;;;;;;;;;;;;-1.81;100.00;100264.66;5021950;28;19917;-43
2022/12/18 01:45:11;;;;;;;;;;;;;;;-1.71;100.00;100268.38;5022032;28;20398;-43
2022/12/18 01:47:38;;;;;;;;;;;;;;;-1.65;100.00;100270.28;5022040;28;20485;-43
2022/12/18 01:50:17;;;;;;;;;;;;;;;-1.75;100.00;100275.00;5019386;28;19928;-43
2022/12/18 01:52:42;;;;;;;;;;;;;;;-1.83;100.00;100263.72;5020163;28;19931;-43
2022/12/18 01:55:08;;;;;;;;;;;;;;;-1.79;100.00;100273.16;5017949;28;19940;-43
2022/12/18 01:57:33;;;;;;;;;;;;;;;-2.04;100.00;100262.91;5019640;28;19917;-42
2022/12/18 02:00:00;;;;;;;;;;;;;;;-1.92;100.00;100258.31;5019369;28;19913;-42
2022/12/18 02:02:26;;;;;;;;;;;;;;;-2.37;100.00;100250.72;5018550;28;19917;-42
2022/12/18 02:04:51;;;;;;;;;;;;;;;-2.07;100.00;100255.25;5017188;28;19925;-42
2022/12/18 02:07:21;;;;;;;;;;;;;;;-2.00;100.00;100249.63;5019186;28;20140;-42
2022/12/18 02:09:48;;;;;;;;;;;;;;;-2.16;100.00;100261.63;5021139;28;20078;-42
2022/12/18 02:12:16;;;;;;;;;;;;;;;-2.06;100.00;100265.38;5020172;28;19924;-42
2022/12/18 02:14:45;;;;;;;;;;;;;;;-1.78;100.00;100279.06;5020218;28;19939;-42
2022/12/18 02:17:23;;;;;;;;;;;;;;;-2.20;100.00;100276.59;5019588;28;20444;-42
2022/12/18 02:19:59;;;;;;;;;;;;;;;-1.73;100.00;100283.50;5019677;28;20382;-42
2022/12/18 02:22:44;;;;;;;;;;;;;;;-1.82;100.00;100278.09;5019788;28;20488;-42
2022/12/18 02:25:13;;;;;;;;;;;;;;;-2.09;100.00;100255.16;5013887;28;19933;-42
2022/12/18 02:27:38;;;;;;;;;;;;;;;-2.09;100.00;100252.63;5021054;28;19952;-42
2022/12/18 02:30:04;;;;;;;;;;;;;;;-1.72;100.00;100261.63;5019144;28;19948;-42
2022/12/18 02:32:37;;;;;;;;;;;;;;;-1.97;100.00;100242.16;5019976;28;19944;-42
2022/12/18 02:35:03;;;;;;;;;;;;;;;-1.80;100.00;100251.25;5019876;28;20286;-42
2022/12/18 02:37:28;;;;;;;;;;;;;;;-1.99;100.00;100249.66;5021214;28;20032;-42
2022/12/18 02:39:54;;;;;;;;;;;;;;;-1.90;100.00;100256.72;5020496;28;19920;-42
2022/12/18 02:42:20;;;;;;;;;;;;;;;-2.09;100.00;100252.63;5020592;28;19921;-42
2022/12/18 02:44:49;;;;;;;;;;;;;;;-2.08;100.00;100263.59;5019907;28;19928;-42
2022/12/18 02:47:15;;;;;;;;;;;;;;;-1.91;100.00;100258.41;5018280;28;20005;-42
2022/12/18 02:49:59;;;;;;;;;;;;;;;-2.12;100.00;100255.91;5020521;28;20000;-42
2022/12/18 02:52:39;;;;;;;;;;;;;;;-1.82;100.00;100254.50;5020912;28;19913;-42
2022/12/18 02:55:12;;;;;;;;;;;;;;;-1.75;100.00;100251.41;5026103;28;19928;-42
2022/12/18 02:57:42;;;;;;;;;;;;;;;-1.95;100.00;100250.66;5018383;28;19928;-42
2022/12/18 03:00:07;;;;;;;;;;;;;;;-2.11;100.00;100244.16;5019881;28;19928;-42
2022/12/18 03:02:37;;;;;;;;;;;;;;;-1.80;100.00;100253.75;5022361;28;19917;-43
2022/12/18 03:05:06;;;;;;;;;;;;;;;-1.86;100.00;100257.72;5006384;28;20656;-42
2022/12/18 03:07:35;;;;;;;;;;;;;;;-1.69;100.00;100264.25;5022965;28;19922;-42
2022/12/18 03:10:00;;;;;;;;;;;;;;;-1.75;100.00;100259.00;5022877;28;19953;-42
2022/12/18 03:12:32;;;;;;;;;;;;;;;-1.85;100.00;100247.66;5025064;28;20354;-42
2022/12/18 03:15:03;;;;;;;;;;;;;;;-1.90;100.00;100244.97;5022232;28;19999;-43
2022/12/18 03:17:29;;;;;;;;;;;;;;;-1.91;100.00;100244.91;5022366;28;20746;-42
2022/12/18 03:19:54;;;;;;;;;;;;;;;-1.79;100.00;100252.94;5024046;28;19917;-42
2022/12/18 03:22:20;;;;;;;;;;;;;;;-1.98;100.00;100251.41;5022871;28;20488;-42
2022/12/18 03:24:45;;;;;;;;;;;;;;;-1.85;100.00;100250.19;5022468;28;19972;-42
2022/12/18 03:27:11;;;;;;;;;;;;;;;-1.82;100.00;100252.00;5022906;28;20608;-42
2022/12/18 03:29:40;;;;;;;;;;;;;;;-1.58;100.00;100257.06;5005485;28;19983;-42
2022/12/18 03:32:08;;;;;;;;;;;;;;;-1.75;100.00;100251.41;5023112;28;19913;-42
2022/12/18 03:34:33;;;;;;;;;;;;;;;-1.79;100.00;100247.91;5022444;28;19925;-42
2022/12/18 03:37:02;;;;;;;;;;;;;;;-1.62;100.00;100252.72;5039609;28;20051;-42
2022/12/18 03:39:27;;;;;;;;;;;;;;;-1.78;100.00;100256.31;5022821;28;19917;-43
2022/12/18 03:41:58;;;;;;;;;;;;;;;-1.66;100.00;100261.84;5023648;28;20653;-42
2022/12/18 03:44:30;;;;;;;;;;;;;;;-1.91;100.00;100252.50;5023755;28;19921;-42
2022/12/18 03:46:58;;;;;;;;;;;;;;;-1.80;100.00;100256.28;5021651;28;20022;-42
2022/12/18 03:49:29;;;;;;;;;;;;;;;-1.74;100.00;100259.03;5023511;28;19917;-42
2022/12/18 03:52:14;;;;;;;;;;;;;;;-1.83;100.00;100261.19;5023282;28;20261;-43
2022/12/18 03:54:40;;;;;;;;;;;;;;;-1.77;100.00;100251.34;5022227;28;20035;-42
2022/12/18 03:57:07;;;;;;;;;;;;;;;-1.88;100.00;100257.66;5023393;28;20030;-42
2022/12/18 03:59:32;;;;;;;;;;;;;;;-1.55;100.00;100253.00;5021753;28;19928;-42
2022/12/18 04:01:57;;;;;;;;;;;;;;;-1.57;100.00;100253.75;5020855;28;19921;-42
2022/12/18 04:04:23;;;;;;;;;;;;;;;-1.74;100.00;100248.91;5023262;28;19996;-42
2022/12/18 04:06:48;;;;;;;;;;;;;;;-1.79;100.00;100242.84;5020678;28;19928;-42
2022/12/18 04:09:13;;;;;;;;;;;;;;;-1.61;100.00;100236.78;5020875;28;20645;-42
2022/12/18 04:11:39;;;;;;;;;;;;;;;-1.62;100.00;100230.88;5021787;28;19921;-43
2022/12/18 04:14:05;;;;;;;;;;;;;;;-1.77;100.00;100231.16;5022167;28;20314;-43
2022/12/18 04:16:30;;;;;;;;;;;;;;;-1.75;100.00;100231.22;5023191;28;19917;-42
2022/12/18 04:18:55;;;;;;;;;;;;;;;-1.51;100.00;100243.88;5021296;28;19921;-42
2022/12/18 04:21:20;;;;;;;;;;;;;;;-1.54;100.00;100238.72;5022537;28;19928;-43
2022/12/18 04:23:46;;;;;;;;;;;;;;;-1.65;100.00;100234.94;5020906;28;19939;-42
2022/12/18 04:26:11;;;;;;;;;;;;;;;-1.58;100.00;100236.88;5023280;28;20369;-42
2022/12/18 04:28:36;;;;;;;;;;;;;;;-1.66;100.00;100230.69;5020141;28;20747;-42
2022/12/18 04:31:02;;;;;;;;;;;;;;;-1.62;100.00;100232.50;5021886;28;19924;-43
2022/12/18 04:33:27;;;;;;;;;;;;;;;-1.70;100.00;100233.09;5021847;28;19921;-42
2022/12/18 04:35:52;;;;;;;;;;;;;;;-1.36;100.00;100233.47;5022606;28;19921;-42
2022/12/18 04:38:17;;;;;;;;;;;;;;;-1.42;100.00;100226.50;5022179;28;19921;-42
2022/12/18 04:40:43;;;;;;;;;;;;;;;-1.43;100.00;100229.84;5023266;28;19947;-43
2022/12/18 04:43:08;;;;;;;;;;;;;;;-1.52;100.00;100224.47;5023799;28;19925;-42
2022/12/18 04:45:33;;;;;;;;;;;;;;;-1.64;100.00;100224.91;5023084;28;20129;-42
2022/12/18 04:47:59;;;;;;;;;;;;;;;-1.57;100.00;100224.31;5022600;28;20262;-42
2022/12/18 04:50:24;;;;;;;;;;;;;;;-1.65;100.00;100224.81;5021930;28;19925;-43
2022/12/18 04:52:49;;;;;;;;;;;;;;;-1.41;100.00;100230.78;5022593;28;20886;-42
2022/12/18 04:55:15;;;;;;;;;;;;;;;-1.51;100.00;100223.66;5022709;28;19917;-42
2022/12/18 04:57:40;;;;;;;;;;;;;;;-1.49;100.00;100207.75;5022861;28;20007;-42
2022/12/18 05:00:06;;;;;;;;;;;;;;;-1.47;100.00;100217.91;5021852;28;19921;-42
2022/12/18 05:02:31;;;;;;;;;;;;;;;-1.32;100.00;100221.00;5021773;28;19913;-42
2022/12/18 05:04:56;;;;;;;;;;;;;;;-1.50;100.00;100210.25;5022335;28;19936;-42
2022/12/18 05:07:22;;;;;;;;;;;;;;;-1.48;100.00;100218.72;5019987;28;19914;-42
2022/12/18 05:09:47;;;;;;;;;;;;;;;-1.57;100.00;100223.47;5021310;28;19921;-42
2022/12/18 05:12:12;;;;;;;;;;;;;;;-1.57;100.00;100215.88;5022111;28;19917;-43
2022/12/18 05:14:37;;;;;;;;;;;;;;;-1.33;100.00;100223.47;5021964;28;19924;-43
2022/12/18 05:17:02;;;;;;;;;;;;;;;-1.42;100.00;100213.88;5022100;28;20152;-42
2022/12/18 05:19:28;;;;;;;;;;;;;;;-1.23;100.00;100217.06;5020835;28;19925;-42
2022/12/18 05:21:53;;;;;;;;;;;;;;;-1.56;100.00;100213.38;5022812;28;19921;-42
2022/12/18 05:24:18;;;;;;;;;;;;;;;-1.51;100.00;100214.41;5020412;28;20023;-42
2022/12/18 05:26:43;;;;;;;;;;;;;;;-1.52;100.00;100216.91;5022040;28;20424;-43
2022/12/18 05:29:12;;;;;;;;;;;;;;;-1.39;100.00;100219.06;5022423;28;19929;-42
2022/12/18 05:31:37;;;;;;;;;;;;;;;-1.43;100.00;100206.25;5020848;28;19921;-42
2022/12/18 05:34:02;;;;;;;;;;;;;;;-1.28;100.00;100212.72;5023322;28;20003;-43
2022/12/18 05:36:27;;;;;;;;;;;;;;;-1.52;100.00;100196.69;5022775;28;19921;-42
2022/12/18 05:38:53;;;;;;;;;;;;;;;-1.21;100.00;100203.66;5022012;28;19913;-43
2022/12/18 05:41:18;;;;;;;;;;;;;;;-1.37;100.00;100186.25;5022888;28;19921;-42
2022/12/18 05:43:43;;;;;;;;;;;;;;;-1.23;100.00;100190.13;5023049;28;20445;-42
2022/12/18 05:46:13;;;;;;;;;;;;;;;-1.45;100.00;100188.50;5022159;28;19925;-43
2022/12/18 05:48:38;;;;;;;;;;;;;;;-1.17;100.00;100175.16;5020306;28;20532;-42
2022/12/18 05:51:07;;;;;;;;;;;;;;;-1.17;100.00;100179.38;5022704;28;19956;-43
2022/12/18 05:53:32;;;;;;;;;;;;;;;-1.28;100.00;100177.34;5021380;28;19928;-42
2022/12/18 05:55:59;;;;;;;;;;;;;;;-1.36;100.00;100182.94;5022366;28;19925;-43
2022/12/18 05:58:25;;;;;;;;;;;;;;;-1.30;100.00;100168.84;5019882;28;20314;-42
2022/12/18 06:00:50;;;;;;;;;;;;;;;-1.04;100.00;100171.38;5020176;28;19921;-42
2022/12/18 06:03:15;;;;;;;;;;;;;;;-1.26;100.00;100175.69;5020093;28;19928;-43
2022/12/18 06:05:42;;;;;;;;;;;;;;;-1.10;100.00;100177.09;5020439;28;19932;-42
2022/12/18 06:08:07;;;;;;;;;;;;;;;-1.04;100.00;100157.91;5019555;28;19921;-43
2022/12/18 06:10:32;;;;;;;;;;;;;;;-1.08;100.00;100154.38;5020009;28;19927;-42
2022/12/18 06:12:58;;;;;;;;;;;;;;;-1.39;100.00;100157.53;5020096;28;20283;-43
2022/12/18 06:15:23;;;;;;;;;;;;;;;-1.27;100.00;100163.88;5020622;28;19917;-43
2022/12/18 06:17:48;;;;;;;;;;;;;;;-1.19;100.00;100158.22;5020351;28;20416;-43
2022/12/18 06:20:14;;;;;;;;;;;;;;;-0.99;100.00;100164.81;5019993;28;20385;-43
2022/12/18 06:22:39;;;;;;;;;;;;;;;-1.01;100.00;100155.47;5019876;28;20385;-42
2022/12/18 06:25:05;;;;;;;;;;;;;;;-0.79;100.00;100167.16;5019213;28;19929;-43
2022/12/18 06:27:31;;;;;;;;;;;;;;;-0.91;100.00;100167.59;5018953;28;19921;-43
2022/12/18 06:29:56;;;;;;;;;;;;;;;-0.88;100.00;100163.50;5017907;28;19975;-42
2022/12/18 06:32:22;;;;;;;;;;;;;;;-0.76;100.00;100168.09;5018455;28;20457;-43
2022/12/18 06:34:47;;;;;;;;;;;;;;;-1.00;100.00;100163.09;5020245;28;19921;-42
2022/12/18 06:37:12;;;;;;;;;;;;;;;-1.07;100.00;100161.19;5021936;28;19917;-43
2022/12/18 06:39:37;;;;;;;;;;;;;;;-1.18;100.00;100148.19;5022972;28;20060;-42
2022/12/18 06:42:03;;;;;;;;;;;;;;;-0.97;100.00;100145.50;5023750;28;19960;-42
2022/12/18 06:44:28;;;;;;;;;;;;;;;-1.27;100.00;100146.19;5024728;28;20004;-42
2022/12/18 06:46:53;;;;;;;;;;;;;;;-0.99;100.00;100154.69;5023123;28;19960;-42
2022/12/18 06:49:18;;;;;;;;;;;;;;;-1.03;100.00;100157.06;5023518;28;19932;-42
2022/12/18 06:51:44;;;;;;;;;;;;;;;-1.11;100.00;100151.78;5024144;28;20015;-42
2022/12/18 06:54:09;;;;;;;;;;;;;;;-1.10;100.00;100150.94;5023577;28;19925;-42
2022/12/18 06:56:34;;;;;;;;;;;;;;;-1.01;100.00;100143.66;5022956;28;20015;-42
2022/12/18 06:58:59;;;;;;;;;;;;;;;-1.17;100.00;100136.41;5022467;28;19955;-42
2022/12/18 07:01:25;;;;;;;;;;;;;;;-1.02;100.00;100144.50;5024020;28;20007;-43
2022/12/18 07:03:54;;;;;;;;;;;;;;;-1.05;100.00;100144.38;5024524;28;19925;-43
2022/12/18 07:06:20;;;;;;;;;;;;;;;-1.31;100.00;100135.94;5024642;28;19921;-42
2022/12/18 07:08:46;;;;;;;;;;;;;;;-1.03;100.00;100132.66;5023034;28;19924;-43
2022/12/18 07:11:11;;;;;;;;;;;;;;;-1.06;100.00;100124.97;5024953;28;19920;-42
2022/12/18 07:13:36;;;;;;;;;;;;;;;-1.23;100.00;100121.00;5024372;28;20308;-42
2022/12/18 07:16:08;;;;;;;;;;;;;;;-1.11;100.00;100122.28;5024179;28;19920;-42
2022/12/18 07:18:33;;;;;;;;;;;;;;;-1.20;100.00;100128.72;5022955;28;19932;-42
2022/12/18 07:21:02;;;;;;;;;;;;;;;-1.23;100.00;100119.38;5022825;28;20325;-42
2022/12/18 07:23:27;;;;;;;;;;;;;;;-1.26;100.00;100117.56;5022136;28;19965;-42
2022/12/18 07:25:52;;;;;;;;;;;;;;;-1.01;100.00;100123.44;5022973;28;19961;-42
2022/12/18 07:28:17;;;;;;;;;;;;;;;-0.90;100.00;100114.53;5023357;28;20557;-42
2022/12/18 07:30:42;;;;;;;;;;;;;;;-1.21;100.00;100099.19;5023535;28;20035;-42
2022/12/18 07:33:08;;;;;;;;;;;;;;;-0.92;100.00;100111.09;5023466;28;19928;-42
2022/12/18 07:35:36;;;;;;;;;;;;;;;-0.94;100.00;100107.66;5022864;28;19928;-43
2022/12/18 07:38:01;;;;;;;;;;;;;;;-1.16;100.00;100098.53;5021969;28;19917;-42
2022/12/18 07:40:26;;;;;;;;;;;;;;;-1.11;100.00;100103.75;5021279;28;19932;-43
2022/12/18 07:42:52;;;;;;;;;;;;;;;-0.77;100.00;100109.88;5023539;28;19979;-43
2022/12/18 07:45:17;;;;;;;;;;;;;;;-0.93;100.00;100101.81;5022379;28;19975;-43
2022/12/18 07:47:42;;;;;;;;;;;;;;;-1.17;100.00;100101.00;5021385;28;20004;-42
2022/12/18 07:50:08;;;;;;;;;;;;;;;-1.06;100.00;100104.75;5022116;28;19990;-42
2022/12/18 07:52:33;;;;;;;;;;;;;;;-0.89;100.00;100105.28;5022948;28;20358;-42
2022/12/18 07:54:58;;;;;;;;;;;;;;;-0.82;100.00;100108.84;5022552;28;20429;-42
2022/12/18 07:57:23;;;;;;;;;;;;;;;-0.60;100.00;100101.13;5022958;28;19921;-42
2022/12/18 07:59:48;;;;;;;;;;;;;;;-0.60;100.00;100098.59;5022294;28;19999;-43
2022/12/18 08:02:14;;;;;;;;;;;;;;;-0.74;100.00;100090.59;5021588;28;19956;-43
2022/12/18 08:04:39;;;;;;;;;;;;;;;-0.77;100.00;100089.66;5021363;28;19936;-43
2022/12/18 08:07:04;;;;;;;;;;;;;;;-0.98;100.00;100079.69;5018694;28;19917;-43
2022/12/18 08:09:30;;;;;;;;;;;;;;;-0.51;100.00;100086.22;5023065;28;19967;-42
2022/12/18 08:11:55;;;;;;;;;;;;;;;-0.34;100.00;100085.88;5023620;28;20475;-43
2022/12/18 08:14:20;;;;;;;;;;;;;;;-0.48;100.00;100077.88;5023650;28;20568;-42
2022/12/18 08:16:45;;;;;;;;;;;;;;;-0.48;100.00;100073.69;5022838;28;19921;-43
2022/12/18 08:19:11;;;;;;;;;;;;;;;-0.40;100.00;100078.97;5022345;28;19921;-43
2022/12/18 08:21:36;;;;;;;;;;;;;;;-0.32;100.00;100071.59;5022880;28;19917;-43
2022/12/18 08:24:02;;;;;;;;;;;;;;;-0.21;100.00;100065.16;5004080;28;19999;-43
2022/12/18 08:26:28;;;;;;;;;;;;;;;-0.17;100.00;100063.59;5022886;28;19924;-43
2022/12/18 08:28:54;;;;;;;;;;;;;;;0.13;100.00;100048.38;5037494;28;19925;-43
2022/12/18 08:31:19;;;;;;;;;;;;;;;0.26;100.00;100050.41;5033320;28;20266;-43
2022/12/18 08:33:44;;;;;;;;;;;;;;;0.17;100.00;100040.03;5022127;28;19931;-42
2022/12/18 08:36:09;;;;;;;;;;;;;;;0.45;100.00;100048.34;5022037;28;19925;-43
2022/12/18 08:38:35;;;;;;;;;;;;;;;0.30;100.00;100043.78;5022065;28;20016;-42
2022/12/18 08:41:00;;;;;;;;;;;;;;;0.40;100.00;100038.97;5021274;28;19943;-43
2022/12/18 08:46:10;;;;;;;;;;;;;;;0.14;100.00;100019.72;5021825;28;19924;-43
2022/12/18 08:48:35;;;;;;;;;;;;;;;0.40;100.00;100017.84;5018774;28;19917;-43
2022/12/18 08:51:00;;;;;;;;;;;;;;;0.18;100.00;100011.34;5022230;28;20566;-43
2022/12/18 08:53:26;;;;;;;;;;;;;;;0.60;100.00;100006.50;5022732;28;19925;-43
2022/12/18 08:55:52;;;;;;;;;;;;;;;0.23;100.00;99991.19;5022630;28;19916;-43
2022/12/18 08:58:17;;;;;;;;;;;;;;;0.29;100.00;99983.78;5036793;28;19917;-43
2022/12/18 09:00:43;;;;;;;;;;;;;;;0.41;100.00;99973.94;5036631;28;19971;-42
2022/12/18 09:03:14;;;;;;;;;;;;;;;0.30;100.00;99970.31;5020035;28;20287;-43
2022/12/18 09:05:40;;;;;;;;;;;;;;;0.92;100.00;99968.38;5020988;28;19921;-43
2022/12/18 09:08:05;;;;;;;;;;;;;;;0.69;100.00;99945.03;5019050;28;21196;-43
2022/12/18 09:10:31;;;;;;;;;;;;;;;1.16;100.00;99962.97;5021715;28;19999;-43
2022/12/18 09:12:56;;;;;;;;;;;;;;;0.66;100.00;99959.31;5022527;28;20353;-43
2022/12/18 09:15:21;;;;;;;;;;;;;;;1.40;100.00;99964.31;5022012;28;19972;-43
2022/12/18 09:17:47;;;;;;;;;;;;;;;1.09;100.00;99965.34;5022346;28;19921;-43
2022/12/18 09:20:13;;;;;;;;;;;;;;;1.70;100.00;99948.00;5021289;28;20317;-43
2022/12/18 09:22:38;;;;;;;;;;;;;;;1.49;100.00;99944.22;5022150;28;19917;-43
2022/12/18 09:25:07;;;;;;;;;;;;;;;1.90;100.00;99949.22;5021700;28;20011;-43
2022/12/18 09:27:33;;;;;;;;;;;;;;;1.73;100.00;99945.50;5020561;28;19925;-43
2022/12/18 09:29:58;;;;;;;;;;;;;;;1.38;100.00;99938.06;5020312;28;19921;-43
2022/12/18 09:32:23;;;;;;;;;;;;;;;1.79;100.00;99922.75;5022948;28;19917;-43
2022/12/18 09:34:49;;;;;;;;;;;;;;;1.14;100.00;99924.06;5022113;28;19987;-43
2022/12/18 09:37:14;;;;;;;;;;;;;;;1.40;100.00;99931.34;5021367;28;19933;-43
2022/12/18 09:39:39;;;;;;;;;;;;;;;1.08;100.00;99929.00;5021195;28;20390;-43
2022/12/18 09:42:06;;;;;;;;;;;;;;;1.15;100.00;99924.91;5022075;28;19917;-44
2022/12/18 09:44:41;;;;;;;;;;;;;;;1.27;100.00;99922.59;5021361;28;19972;-43
2022/12/18 09:47:09;;;;;;;;;;;;;;;1.65;100.00;99923.34;5019321;28;20012;-43
2022/12/18 09:49:35;;;;;;;;;;;;;;;2.09;100.00;99915.66;5018875;28;20115;-43
2022/12/18 09:52:05;;;;;;;;;;;;;;;1.82;100.00;99927.88;5021529;28;19928;-43
2022/12/18 09:54:35;;;;;;;;;;;;;;;2.18;100.00;99934.44;5019885;28;20346;-43
2022/12/18 09:57:00;;;;;;;;;;;;;;;1.70;100.00;99935.28;5018523;28;19924;-43
2022/12/18 09:59:33;;;;;;;;;;;;;;;1.64;100.00;99928.41;5019863;28;19921;-43
2022/12/18 10:01:59;;;;;;;;;;;;;;;2.00;100.00;99905.34;5020459;28;19962;-44
2022/12/18 10:04:24;;;;;;;;;;;;;;;1.74;100.00;99916.75;5020281;28;20439;-44
2022/12/18 10:06:49;;;;;;;;;;;;;;;1.65;100.00;99908.13;5020333;28;21080;-43
2022/12/18 10:09:28;;;;;;;;;;;;;;;2.22;100.00;99898.94;5020298;28;20058;-44
2022/12/18 10:11:56;;;;;;;;;;;;;;;1.82;100.00;99899.94;5018193;28;20011;-43
2022/12/18 10:14:40;;;;;;;;;;;;;;;2.53;100.00;99885.84;5019252;28;19940;-44
2022/12/18 10:17:11;;;;;;;;;;;;;;;2.43;100.00;99865.38;5017639;28;20032;-44
2022/12/18 10:19:40;;;;;;;;;;;;;;;2.36;100.00;99868.66;5017439;28;19917;-44
2022/12/18 10:22:18;;;;;;;;;;;;;;;2.68;100.00;99855.56;5018722;28;19967;-44
2022/12/18 10:24:49;;;;;;;;;;;;;;;2.62;100.00;99850.38;5020022;28;20078;-45
2022/12/18 10:27:16;;;;;;;;;;;;;;;2.48;100.00;99843.41;5020206;28;19925;-44
2022/12/18 10:29:42;;;;;;;;;;;;;;;2.18;100.00;99846.34;5020693;28;20354;-44
2022/12/18 10:32:09;;;;;;;;;;;;;;;2.82;100.00;99848.09;5021935;28;19999;-44
2022/12/18 10:34:34;;;;;;;;;;;;;;;2.75;100.00;99847.19;5021149;28;19917;-44
2022/12/18 10:37:00;;;;;;;;;;;;;;;2.79;100.00;99828.59;5020869;28;19917;-44
2022/12/18 10:39:28;;;;;;;;;;;;;;;2.96;98.90;99816.06;5020979;28;19952;-45
2022/12/18 10:42:29;;;;;;;;;;;;;;;2.82;98.14;99802.31;5021488;28;20453;-44
2022/12/18 10:45:00;;;;;;;;;;;;;;;2.97;98.11;99806.75;4958419;28;20024;-45
2022/12/18 10:47:26;;;;;;;;;;;;;;;3.09;97.83;99806.88;5010813;28;19960;-45
2022/12/18 10:49:52;;;;;;;;;;;;;;;3.00;98.60;99796.59;5019959;28;20005;-44
2022/12/18 10:52:18;;;;;;;;;;;;;;;2.76;97.81;99787.84;5019181;28;20043;-44
2022/12/18 10:55:03;;;;;;;;;;;;;;;2.89;97.43;99784.59;5019471;28;20440;-44
2022/12/18 10:57:36;;;;;;;;;;;;;;;2.76;96.76;99766.63;5020727;28;19913;-44
2022/12/18 11:00:22;;;;;;;;;;;;;;;2.67;96.06;99762.31;5020607;28;19917;-45
2022/12/18 11:02:47;;;;;;;;;;;;;;;2.46;95.79;99758.66;5019751;28;19974;-44
2022/12/18 11:05:32;;;;;;;;;;;;;;;2.66;93.85;99746.19;5020734;28;19925;-44
2022/12/18 11:07:59;;;;;;;;;;;;;;;2.84;94.28;99747.25;5019971;28;19924;-44
2022/12/18 11:10:30;;;;;;;;;;;;;;;3.08;91.92;99736.44;5017694;28;20008;-44
2022/12/18 11:12:56;;;;;;;;;;;;;;;3.24;91.28;99734.91;5018718;28;20003;-45
2022/12/18 11:15:23;;;;;;;;;;;;;;;3.07;91.30;99737.31;5036316;28;19917;-44
2022/12/18 11:17:49;;;;;;;;;;;;;;;3.17;91.19;99739.13;5018668;28;19921;-44
2022/12/18 11:20:23;;;;;;;;;;;;;;;3.31;90.24;99731.59;5018418;28;20792;-44
2022/12/18 11:22:54;;;;;;;;;;;;;;;2.98;89.01;99719.41;5019359;28;19956;-44
2022/12/18 11:25:19;;;;;;;;;;;;;;;3.18;90.20;99739.97;5021518;28;19925;-44
2022/12/18 11:27:48;;;;;;;;;;;;;;;3.26;88.29;99716.28;5038772;28;19917;-44
2022/12/18 11:30:24;;;;;;;;;;;;;;;3.27;88.84;99715.44;5021255;28;19917;-44
2022/12/18 11:32:56;;;;;;;;;;;;;;;3.06;88.11;99707.63;5023846;28;19923;-45
2022/12/18 11:35:25;;;;;;;;;;;;;;;3.27;89.42;99710.34;5023948;28;19917;-44
2022/12/18 11:37:53;;;;;;;;;;;;;;;3.13;89.62;99714.47;5038171;28;19917;-45
2022/12/18 11:40:22;;;;;;;;;;;;;;;3.30;89.56;99706.97;5022590;28;19932;-44
2022/12/18 11:42:49;;;;;;;;;;;;;;;3.33;89.56;99707.88;5022963;28;19928;-44
2022/12/18 11:45:18;;;;;;;;;;;;;;;3.33;89.21;99692.59;5021666;28;19936;-45
2022/12/18 11:47:51;;;;;;;;;;;;;;;3.16;87.52;99694.13;5022888;28;19917;-44
2022/12/18 11:50:37;;;;;;;;;;;;;;;3.32;85.98;99672.22;5022259;28;19913;-45
2022/12/18 11:53:03;;;;;;;;;;;;;;;3.67;85.48;99659.75;5022700;28;19932;-44
2022/12/18 11:55:48;;;;;;;;;;;;;;;3.70;85.36;99654.66;5024642;28;19924;-44
2022/12/18 11:58:13;;;;;;;;;;;;;;;3.71;83.99;99661.44;5001418;28;19917;-44
2022/12/18 12:00:45;;;;;;;;;;;;;;;3.81;83.45;99657.28;5021246;28;20305;-44
2022/12/18 12:03:22;;;;;;;;;;;;;;;3.83;81.79;99639.44;5018948;28;19968;-44
2022/12/18 12:06:03;;;;;;;;;;;;;;;3.93;81.58;99629.31;5019495;28;20500;-45
2022/12/18 12:08:37;;;;;;;;;;;;;;;3.72;82.24;99640.25;5019761;28;19932;-44
2022/12/18 12:11:03;;;;;;;;;;;;;;;3.79;81.06;99628.41;5022633;28;19992;-44
2022/12/18 12:13:31;;;;;;;;;;;;;;;3.76;80.41;99618.16;5022893;28;19921;-45
2022/12/18 12:16:08;;;;;;;;;;;;;;;4.35;79.66;99614.16;5022352;28;19932;-45
2022/12/18 12:18:50;;;;;;;;;;;;;;;4.26;78.25;99591.19;5020492;28;19960;-45
2022/12/18 12:21:18;;;;;;;;;;;;;;;4.16;78.94;99609.00;5022956;28;20389;-44
2022/12/18 12:24:01;;;;;;;;;;;;;;;3.64;76.45;99603.66;5021671;28;19929;-45
2022/12/18 12:26:27;;;;;;;;;;;;;;;4.28;76.36;99592.91;5023445;28;20318;-45
2022/12/18 12:28:55;;;;;;;;;;;;;;;4.41;75.76;99598.91;5020633;28;20031;-45
2022/12/18 12:31:26;;;;;;;;;;;;;;;4.57;71.60;99577.66;5033242;28;19921;-45
2022/12/18 12:33:57;;;;;;;;;;;;;;;4.53;69.01;99577.66;5020974;28;19921;-45
2022/12/18 12:36:41;;;;;;;;;;;;;;;4.51;70.02;99587.00;5022773;28;21014;-45
2022/12/18 12:39:08;;;;;;;;;;;;;;;4.56;71.24;99593.84;5021082;28;20375;-45
2022/12/18 12:44:24;;;;;;;;;;;;;;;4.67;70.94;99596.38;5021783;28;20044;-44